createdAt,value
2023-04-05T00:02:14.113Z,17.67
2023-04-05T00:04:50.113Z,16.40
2023-04-05T00:07:17.382Z,18.17
2023-04-05T00:09:44.008Z,17.93
2023-04-05T00:12:10.862Z,18.33
2023-04-05T00:14:37.485Z,15.47
2023-04-05T00:17:04.260Z,14.67
2023-04-05T00:19:33.705Z,15.47
2023-04-05T00:22:00.702Z,19.93
2023-04-05T00:24:29.252Z,18.63
2023-04-05T00:26:56.572Z,18.87
2023-04-05T00:29:23.341Z,18.30
2023-04-05T00:31:50.299Z,15.47
2023-04-05T00:34:16.934Z,19.67
2023-04-05T00:36:43.432Z,20.17
2023-04-05T00:39:10.197Z,15.20
2023-04-05T00:41:36.721Z,17.20
2023-04-05T00:44:03.874Z,17.70
2023-04-05T00:46:33.504Z,19.40
2023-04-05T00:49:00.120Z,16.73
2023-04-05T00:51:26.774Z,20.50
2023-04-05T00:53:53.797Z,16.27
2023-04-05T00:56:21.629Z,21.70
2023-04-05T00:58:51.669Z,27.50
2023-04-05T01:01:23.644Z,17.03
2023-04-05T01:03:55.947Z,16.70
2023-04-05T01:06:53.126Z,20.77
2023-04-05T01:09:45.642Z,18.53
2023-04-05T01:12:20.771Z,23.83
2023-04-05T01:14:52.561Z,21.53
2023-04-05T01:17:23.760Z,19.53
2023-04-05T01:19:58.664Z,17.07
2023-04-05T01:22:53.174Z,20.73
2023-04-05T01:25:59.940Z,18.90
2023-04-05T01:28:38.650Z,20.80
2023-04-05T01:31:39.080Z,19.00
2023-04-05T01:34:21.606Z,15.57
2023-04-05T01:37:01.447Z,17.47
2023-04-05T01:39:29.747Z,18.07
2023-04-05T01:42:03.318Z,17.93
2023-04-05T01:44:30.010Z,16.17
2023-04-05T01:46:56.830Z,17.13
2023-04-05T01:49:24.558Z,17.50
2023-04-05T01:51:51.187Z,16.33
2023-04-05T01:54:17.747Z,19.60
2023-04-05T01:56:44.511Z,17.17
2023-04-05T01:59:11.119Z,20.23
2023-04-05T02:01:37.692Z,16.20
2023-04-05T02:04:04.260Z,22.90
2023-04-05T02:06:32.090Z,16.33
2023-04-05T02:08:58.598Z,23.37
2023-04-05T02:11:25.272Z,19.10
2023-04-05T02:13:51.818Z,20.03
2023-04-05T02:16:18.651Z,18.40
2023-04-05T02:18:50.595Z,21.23
2023-04-05T02:21:17.138Z,26.07
2023-04-05T02:23:44.196Z,21.40
2023-04-05T02:26:10.697Z,21.87
2023-04-05T02:28:37.241Z,28.23
2023-04-05T02:31:09.982Z,24.90
2023-04-05T02:33:36.979Z,23.60
2023-04-05T02:36:09.467Z,25.33
2023-04-05T02:38:36.161Z,23.70
2023-04-05T02:41:03.146Z,25.43
2023-04-05T02:43:29.660Z,20.40
2023-04-05T02:45:56.290Z,23.80
2023-04-05T02:48:22.821Z,24.97
2023-04-05T02:50:50.871Z,26.03
2023-04-05T02:53:18.561Z,21.90
2023-04-05T02:55:55.680Z,24.00
2023-04-05T02:58:23.497Z,23.43
2023-04-05T03:00:51.738Z,21.63
2023-04-05T03:03:19.496Z,24.60
2023-04-05T03:05:48.444Z,25.77
2023-04-05T03:08:19.398Z,21.30
2023-04-05T03:10:46.619Z,25.63
2023-04-05T03:13:14.314Z,21.40
2023-04-05T03:15:42.207Z,23.37
2023-04-05T03:18:09.490Z,22.50
2023-04-05T03:20:40.403Z,24.70
2023-04-05T03:23:08.768Z,21.87
2023-04-05T03:25:37.009Z,24.80
2023-04-05T03:28:05.556Z,22.77
2023-04-05T03:30:33.112Z,24.80
2023-04-05T03:33:03.042Z,23.17
2023-04-05T03:35:30.106Z,21.57
2023-04-05T03:37:57.170Z,28.07
2023-04-05T03:40:24.426Z,31.00
2023-04-05T03:42:51.124Z,28.47
2023-04-05T03:45:23.264Z,26.57
2023-04-05T03:47:51.210Z,26.23
2023-04-05T03:50:17.897Z,21.73
2023-04-05T03:52:44.740Z,24.93
2023-04-05T03:55:11.296Z,24.87
2023-04-05T03:57:38.803Z,28.87
2023-04-05T04:00:14.011Z,25.43
2023-04-05T04:02:45.264Z,23.47
2023-04-05T04:05:12.459Z,31.80
2023-04-05T04:07:39.155Z,24.57
2023-04-05T04:10:06.475Z,25.53
2023-04-05T04:12:32.990Z,20.87
2023-04-05T04:14:59.642Z,24.13
2023-04-05T04:17:31.316Z,28.90
2023-04-05T04:19:58.702Z,28.03
2023-04-05T04:22:32.984Z,28.00
2023-04-05T04:25:02.625Z,28.23
2023-04-05T04:27:30.321Z,35.90
2023-04-05T04:30:01.802Z,35.70
2023-04-05T04:32:49.161Z,27.73
2023-04-05T04:35:20.793Z,25.90
2023-04-05T04:37:52.700Z,26.13
2023-04-05T04:40:19.261Z,24.77
2023-04-05T04:42:48.854Z,28.40
2023-04-05T04:45:19.499Z,24.00
2023-04-05T04:47:47.962Z,25.63
2023-04-05T04:50:15.899Z,24.57
2023-04-05T04:52:42.774Z,26.73
2023-04-05T04:55:10.061Z,26.57
2023-04-05T04:57:36.643Z,31.47
2023-04-05T05:00:07.865Z,31.17
2023-04-05T05:02:34.646Z,31.87
2023-04-05T05:05:01.226Z,31.37
2023-04-05T05:07:28.571Z,28.00
2023-04-05T05:09:55.291Z,32.97
2023-04-05T05:12:22.293Z,26.67
2023-04-05T05:14:48.795Z,26.63
2023-04-05T05:17:15.358Z,28.63
2023-04-05T05:19:41.923Z,27.80
2023-04-05T05:22:08.553Z,29.43
2023-04-05T05:24:35.070Z,27.27
2023-04-05T05:27:01.643Z,30.17
2023-04-05T05:29:28.346Z,25.27
2023-04-05T05:31:55.247Z,31.67
2023-04-05T05:34:22.187Z,34.33
2023-04-05T05:36:48.927Z,32.10
2023-04-05T05:39:15.876Z,30.40
2023-04-05T05:41:42.452Z,26.70
2023-04-05T05:44:08.970Z,31.27
2023-04-05T05:46:35.692Z,27.07
2023-04-05T05:49:02.290Z,33.03
2023-04-05T05:51:28.821Z,29.57
2023-04-05T05:53:55.666Z,28.13
2023-04-05T05:56:22.490Z,29.43
2023-04-05T05:58:49.139Z,30.73
2023-04-05T06:01:16.153Z,37.77
2023-04-05T06:03:42.852Z,36.50
2023-04-05T06:06:11.044Z,29.80
2023-04-05T06:08:38.056Z,29.57
2023-04-05T06:11:04.811Z,30.37
2023-04-05T06:13:31.373Z,44.50
2023-04-05T06:16:00.953Z,31.20
2023-04-05T06:18:27.498Z,36.87
2023-04-05T06:20:55.697Z,33.27
2023-04-05T06:23:22.347Z,25.50
2023-04-05T06:25:49.142Z,27.73
2023-04-05T06:28:15.717Z,28.57
2023-04-05T06:30:42.477Z,30.37
2023-04-05T06:33:09.166Z,33.40
2023-04-05T06:35:35.781Z,34.87
2023-04-05T06:38:02.367Z,35.20
2023-04-05T06:40:29.275Z,34.50
2023-04-05T06:42:56.115Z,33.50
2023-04-05T06:45:23.041Z,29.57
2023-04-05T06:47:49.680Z,28.77
2023-04-05T06:50:16.267Z,30.37
2023-04-05T06:52:42.787Z,40.20
2023-04-05T06:55:09.572Z,29.37
2023-04-05T06:57:36.089Z,33.23
2023-04-05T07:00:08.524Z,30.57
2023-04-05T07:02:36.284Z,34.67
2023-04-05T07:05:05.610Z,31.83
2023-04-05T07:07:39.682Z,26.77
2023-04-05T07:10:06.751Z,28.90
2023-04-05T07:12:33.292Z,29.87
2023-04-05T07:15:00.272Z,23.13
2023-04-05T07:17:27.054Z,24.87
2023-04-05T07:19:53.638Z,21.53
2023-04-05T07:22:20.422Z,21.43
2023-04-05T07:24:46.996Z,19.17
2023-04-05T07:27:13.540Z,17.07
2023-04-05T07:29:44.524Z,15.27
2023-04-05T07:32:11.950Z,20.97
2023-04-05T07:34:38.547Z,11.53
2023-04-05T07:37:06.341Z,17.53
2023-04-05T07:39:33.274Z,15.33
2023-04-05T07:41:59.817Z,13.77
2023-04-05T07:44:26.549Z,20.10
2023-04-05T07:46:53.165Z,15.10
2023-04-05T07:49:25.288Z,14.50
2023-04-05T07:51:55.576Z,14.13
2023-04-05T07:54:22.158Z,11.23
2023-04-05T07:56:51.662Z,17.07
2023-04-05T07:59:18.309Z,13.43
2023-04-05T08:01:44.872Z,14.73
2023-04-05T08:04:11.613Z,14.53
2023-04-05T08:06:38.453Z,13.30
2023-04-05T08:09:05.727Z,16.93
2023-04-05T08:11:33.056Z,11.87
2023-04-05T08:13:59.623Z,17.03
2023-04-05T08:16:26.268Z,15.20
2023-04-05T08:18:52.761Z,15.93
2023-04-05T08:21:19.286Z,13.90
2023-04-05T08:23:46.282Z,15.77
2023-04-05T08:26:12.854Z,20.07
2023-04-05T08:28:39.361Z,12.90
2023-04-05T08:31:06.004Z,16.50
2023-04-05T08:33:32.554Z,13.13
2023-04-05T08:36:07.339Z,14.47
2023-04-05T08:38:34.385Z,13.93
2023-04-05T08:41:22.730Z,12.83
2023-04-05T08:44:02.188Z,17.80
2023-04-05T08:46:33.661Z,16.90
2023-04-05T08:49:04.015Z,12.77
2023-04-05T08:51:31.029Z,12.03
2023-04-05T08:53:59.738Z,14.70
2023-04-05T08:56:31.291Z,12.13
2023-04-05T08:59:01.612Z,16.17
2023-04-05T09:01:30.885Z,12.20
2023-04-05T09:04:01.393Z,13.73
2023-04-05T09:06:28.652Z,11.73
2023-04-05T09:08:58.248Z,15.17
2023-04-05T09:11:25.584Z,12.10
2023-04-05T09:13:52.438Z,12.00
2023-04-05T09:16:20.124Z,12.07
2023-04-05T09:18:46.848Z,13.80
2023-04-05T09:21:13.512Z,16.80
2023-04-05T09:23:52.616Z,12.57
2023-04-05T09:26:21.464Z,10.43
2023-04-05T09:28:48.187Z,15.70
2023-04-05T09:31:35.503Z,14.23
2023-04-05T09:34:05.813Z,12.50
2023-04-05T09:36:36.234Z,14.63
2023-04-05T09:39:09.634Z,14.80
2023-04-05T09:41:36.836Z,13.47
2023-04-05T09:44:03.829Z,13.40
2023-04-05T09:46:37.072Z,10.07
2023-04-05T09:49:04.113Z,17.03
2023-04-05T09:51:35.583Z,15.50
2023-04-05T09:54:10.567Z,13.50
2023-04-05T09:56:40.322Z,17.92
2023-04-05T09:59:13.181Z,15.02
2023-04-05T10:01:43.940Z,16.48
2023-04-05T10:04:10.999Z,12.18
2023-04-05T10:06:42.569Z,12.20
2023-04-05T10:09:11.278Z,11.18
2023-04-05T10:11:38.883Z,11.48
2023-04-05T10:14:08.351Z,13.82
2023-04-05T10:16:58.235Z,11.00
2023-04-05T10:19:32.871Z,11.25
2023-04-05T10:22:02.371Z,12.20
2023-04-05T10:24:40.442Z,12.13
2023-04-05T10:27:21.378Z,10.98
2023-04-05T10:30:13.804Z,14.40
2023-04-05T10:33:17.849Z,13.68
2023-04-05T10:35:55.298Z,12.63
2023-04-05T10:38:27.191Z,12.18
2023-04-05T10:40:57.223Z,11.95
2023-04-05T10:43:26.904Z,10.68
2023-04-05T10:45:55.644Z,13.23
2023-04-05T10:48:44.448Z,9.80
2023-04-05T10:51:13.126Z,11.43
2023-04-05T10:53:41.236Z,14.15
2023-04-05T10:56:08.824Z,10.93
2023-04-05T10:58:36.857Z,15.10
2023-04-05T11:01:04.802Z,11.50
2023-04-05T11:03:48.739Z,13.88
2023-04-05T11:06:33.291Z,10.63
2023-04-05T11:09:21.106Z,10.95
2023-04-05T11:11:49.548Z,9.68
2023-04-05T11:14:27.624Z,11.70
2023-04-05T11:16:59.595Z,12.57
2023-04-05T11:19:54.215Z,10.38
2023-04-05T11:22:28.984Z,12.43
2023-04-05T11:24:58.297Z,9.30
2023-04-05T11:27:40.849Z,12.88
2023-04-05T11:30:08.289Z,10.57
2023-04-05T11:32:43.657Z,12.43
2023-04-05T11:35:15.309Z,13.07
2023-04-05T11:38:00.198Z,10.75
2023-04-05T11:40:40.908Z,16.60
2023-04-05T11:43:12.165Z,15.35
2023-04-05T11:45:40.003Z,11.27
2023-04-05T11:48:11.836Z,9.25
2023-04-05T11:50:39.664Z,9.23
2023-04-05T11:53:17.116Z,14.02
2023-04-05T11:55:50.483Z,11.65
2023-04-05T11:58:21.387Z,10.48
2023-04-05T12:01:01.682Z,12.27
2023-04-05T12:03:29.713Z,14.57
2023-04-05T12:05:58.047Z,10.63
2023-04-05T12:08:41.842Z,13.57
2023-04-05T12:11:11.452Z,10.73
2023-04-05T12:13:39.613Z,9.70
2023-04-05T12:16:08.103Z,11.57
2023-04-05T12:18:38.340Z,9.40
2023-04-05T12:21:09.321Z,8.90
2023-04-05T12:23:39.014Z,13.68
2023-04-05T12:26:07.977Z,11.00
2023-04-05T12:28:57.761Z,12.73
2023-04-05T12:31:44.869Z,13.48
2023-04-05T12:34:13.963Z,14.25
2023-04-05T12:36:45.981Z,10.00
2023-04-05T12:39:12.592Z,14.50
2023-04-05T12:41:39.430Z,10.70
2023-04-05T12:44:16.102Z,10.93
2023-04-05T12:46:46.705Z,13.88
2023-04-05T12:49:14.648Z,9.25
2023-04-05T12:51:46.060Z,10.13
2023-04-05T12:54:21.516Z,11.20
2023-04-05T12:56:50.669Z,9.63
2023-04-05T12:59:17.227Z,14.75
2023-04-05T13:01:43.798Z,10.40
2023-04-05T13:06:40.321Z,10.85
2023-04-05T13:09:06.834Z,11.93
2023-04-05T13:11:33.403Z,13.25
2023-04-05T13:14:00.173Z,13.23
2023-04-05T13:16:27.214Z,11.52
2023-04-05T13:18:53.808Z,10.57
2023-04-05T13:21:20.396Z,10.13
2023-04-05T13:23:46.893Z,10.90
2023-04-05T13:26:13.399Z,11.25
2023-04-05T13:28:39.997Z,12.73
2023-04-05T13:31:08.156Z,13.30
2023-04-05T13:33:34.873Z,16.83
2023-04-05T13:36:01.665Z,13.35
2023-04-05T13:38:28.345Z,11.63
2023-04-05T13:40:55.290Z,13.30
2023-04-05T13:43:21.814Z,9.63
2023-04-05T13:45:48.461Z,13.32
2023-04-05T13:48:15.009Z,12.65
2023-04-05T13:50:41.740Z,16.98
2023-04-05T13:53:08.478Z,10.45
2023-04-05T13:55:35.028Z,16.52
2023-04-05T13:58:01.559Z,10.77
2023-04-05T14:00:28.052Z,11.60
2023-04-05T14:02:54.753Z,13.68
2023-04-05T14:05:21.407Z,17.52
2023-04-05T14:07:49.811Z,11.70
2023-04-05T14:10:17.576Z,10.93
2023-04-05T14:12:44.485Z,11.30
2023-04-05T14:15:11.860Z,13.07
2023-04-05T14:17:38.496Z,15.20
2023-04-05T14:20:06.466Z,11.45
2023-04-05T14:22:33.093Z,17.58
2023-04-05T14:24:59.722Z,14.68
2023-04-05T14:27:28.258Z,12.70
2023-04-05T14:29:58.339Z,12.68
2023-04-05T14:32:25.750Z,18.90
2023-04-05T14:34:52.558Z,11.50
2023-04-05T14:37:19.211Z,11.60
2023-04-05T14:39:46.824Z,11.30
2023-04-05T14:42:13.420Z,11.95
2023-04-05T14:44:40.051Z,13.82
2023-04-05T14:47:06.936Z,10.65
2023-04-05T14:49:33.546Z,13.07
2023-04-05T14:52:00.280Z,12.80
2023-04-05T14:54:26.827Z,14.65
2023-04-05T14:56:53.439Z,12.55
2023-04-05T14:59:20.186Z,13.95
2023-04-05T15:01:47.309Z,10.60
2023-04-05T15:04:14.079Z,11.70
2023-04-05T15:06:40.748Z,12.02
2023-04-05T15:09:07.368Z,11.20
2023-04-05T15:11:38.602Z,12.07
2023-04-05T15:14:05.615Z,10.27
2023-04-05T15:16:32.320Z,10.55
2023-04-05T15:18:59.074Z,13.30
2023-04-05T15:21:25.887Z,13.82
2023-04-05T15:23:52.473Z,13.50
2023-04-05T15:26:19.131Z,9.90
2023-04-05T15:28:45.707Z,12.60
2023-04-05T15:31:12.345Z,11.20
2023-04-05T15:33:38.917Z,10.55
2023-04-05T15:36:07.073Z,10.75
2023-04-05T15:38:33.756Z,11.98
2023-04-05T15:41:00.345Z,11.75
2023-04-05T15:43:27.002Z,12.57
2023-04-05T15:45:53.676Z,9.93
2023-04-05T15:48:20.408Z,13.10
2023-04-05T15:50:47.178Z,12.77
2023-04-05T15:53:13.785Z,11.13
2023-04-05T15:55:40.363Z,12.02
2023-04-05T15:58:07.366Z,14.55
2023-04-05T16:00:34.064Z,12.73
2023-04-05T16:03:01.207Z,11.48
2023-04-05T16:05:27.955Z,14.77
2023-04-05T16:07:55.430Z,12.98
2023-04-05T16:10:22.237Z,11.38
2023-04-05T16:12:48.874Z,11.55
2023-04-05T16:15:15.476Z,12.10
2023-04-05T16:17:42.284Z,12.93
2023-04-05T16:20:09.223Z,10.13
2023-04-05T16:22:35.826Z,12.65
2023-04-05T16:25:02.397Z,10.77
2023-04-05T16:27:28.979Z,13.05
2023-04-05T16:29:55.610Z,10.65
2023-04-05T16:32:22.474Z,10.45
2023-04-05T16:34:49.045Z,14.25
2023-04-05T16:37:15.834Z,16.85
2023-04-05T16:39:42.415Z,10.57
2023-04-05T16:42:09.366Z,12.20
2023-04-05T16:44:35.958Z,13.88
2023-04-05T16:47:02.527Z,15.10
2023-04-05T16:49:29.121Z,9.30
2023-04-05T16:51:55.707Z,11.25
2023-04-05T16:54:22.269Z,10.55
2023-04-05T16:56:48.848Z,9.48
2023-04-05T16:59:15.601Z,8.98
2023-04-05T17:01:42.425Z,19.33
2023-04-05T17:04:09.131Z,14.90
2023-04-05T17:06:35.717Z,11.57
2023-04-05T17:09:03.327Z,10.37
2023-04-05T17:11:30.128Z,10.93
2023-04-05T17:13:59.141Z,12.33
2023-04-05T17:16:26.310Z,14.53
2023-04-05T17:18:52.997Z,12.80
2023-04-05T17:21:19.651Z,10.93
2023-04-05T17:23:46.221Z,11.77
2023-04-05T17:26:14.043Z,11.00
2023-04-05T17:28:40.692Z,16.50
2023-04-05T17:31:07.635Z,12.43
2023-04-05T17:33:34.274Z,10.83
2023-04-05T17:36:01.624Z,12.27
2023-04-05T17:38:28.325Z,13.33
2023-04-05T17:40:57.153Z,12.27
2023-04-05T17:43:24.148Z,11.43
2023-04-05T17:45:51.591Z,13.87
2023-04-05T17:48:18.803Z,13.47
2023-04-05T17:50:45.535Z,13.00
2023-04-05T17:53:13.791Z,13.73
2023-04-05T17:55:40.508Z,14.70
2023-04-05T17:58:07.104Z,13.47
2023-04-05T18:00:33.699Z,15.57
2023-04-05T18:03:07.175Z,12.70
2023-04-05T18:05:34.745Z,14.00
2023-04-05T18:08:01.540Z,12.87
2023-04-05T18:10:28.308Z,19.90
2023-04-05T18:12:55.043Z,18.90
2023-04-05T18:15:21.657Z,21.57
2023-04-05T18:17:48.287Z,15.07
2023-04-05T18:20:14.887Z,30.30
2023-04-05T18:22:41.582Z,20.27
2023-04-05T18:25:09.719Z,16.60
2023-04-05T18:27:36.695Z,15.13
2023-04-05T18:30:03.439Z,24.43
2023-04-05T18:32:30.250Z,20.87
2023-04-05T18:34:56.882Z,14.83
2023-04-05T18:37:23.816Z,27.20
2023-04-05T18:39:50.385Z,33.47
2023-04-05T18:42:17.228Z,23.20
2023-04-05T18:44:43.817Z,24.60
2023-04-05T18:47:10.425Z,27.77
2023-04-05T18:49:37.193Z,28.60
2023-04-05T18:52:03.843Z,21.93
2023-04-05T18:54:30.406Z,24.07
2023-04-05T18:56:57.176Z,47.17
2023-04-05T18:59:23.771Z,36.97
2023-04-05T19:01:51.562Z,19.03
2023-04-05T19:04:18.225Z,21.23
2023-04-05T19:06:45.012Z,17.77
2023-04-05T19:09:11.985Z,15.23
2023-04-05T19:11:38.609Z,14.47
2023-04-05T19:14:05.412Z,19.83
2023-04-05T19:16:32.094Z,19.20
2023-04-05T19:18:58.827Z,18.27
2023-04-05T19:21:25.866Z,16.63
2023-04-05T19:23:52.797Z,23.70
2023-04-05T19:26:21.856Z,18.60
2023-04-05T19:28:49.605Z,23.70
2023-04-05T19:31:16.297Z,26.40
2023-04-05T19:33:42.981Z,23.00
2023-04-05T19:36:09.565Z,20.87
2023-04-05T19:38:36.448Z,20.13
2023-04-05T19:41:03.313Z,23.70
2023-04-05T19:43:31.466Z,24.23
2023-04-05T19:46:00.330Z,28.13
2023-04-05T19:48:33.017Z,27.00
2023-04-05T19:51:02.190Z,27.67
2023-04-05T19:53:45.500Z,34.90
2023-04-05T19:56:23.506Z,28.53
2023-04-05T19:58:56.308Z,28.80
2023-04-05T20:01:37.752Z,31.00
2023-04-05T20:04:20.090Z,37.63
2023-04-05T20:06:53.139Z,29.27
2023-04-05T20:09:26.668Z,27.50
2023-04-05T20:12:01.776Z,31.07
2023-04-05T20:14:30.569Z,33.50
2023-04-05T20:16:58.330Z,28.63
2023-04-05T20:19:30.765Z,29.73
2023-04-05T20:21:58.608Z,26.90
2023-04-05T20:24:27.185Z,28.00
2023-04-05T20:26:56.601Z,27.60
2023-04-05T20:29:28.356Z,33.57
2023-04-05T20:31:55.472Z,30.30
2023-04-05T20:34:34.158Z,26.83
2023-04-05T20:37:02.602Z,26.70
2023-04-05T20:39:30.149Z,26.13
2023-04-05T20:41:57.094Z,28.47
2023-04-05T20:44:24.713Z,24.23
2023-04-05T20:46:53.764Z,24.13
2023-04-05T20:49:24.137Z,26.40
2023-04-05T20:51:51.149Z,26.50
2023-04-05T20:54:19.771Z,24.63
2023-04-05T20:56:46.919Z,26.93
2023-04-05T20:59:14.588Z,26.57
2023-04-05T21:01:42.716Z,29.07
2023-04-05T21:04:09.842Z,30.83
2023-04-05T21:06:37.459Z,26.63
2023-04-05T21:09:04.363Z,27.33
2023-04-05T21:11:30.976Z,25.63
2023-04-05T21:13:57.638Z,30.33
2023-04-05T21:16:24.457Z,31.03
2023-04-05T21:18:51.124Z,26.07
2023-04-05T21:21:17.769Z,30.87
2023-04-05T21:23:44.609Z,29.00
2023-04-05T21:26:11.172Z,28.17
2023-04-05T21:28:37.997Z,29.87
2023-04-05T21:31:04.611Z,23.37
2023-04-05T21:33:31.767Z,28.93
2023-04-05T21:35:58.486Z,45.40
2023-04-05T21:38:25.136Z,40.20
2023-04-05T21:40:51.943Z,31.73
2023-04-05T21:43:18.543Z,37.83
2023-04-05T21:45:46.333Z,40.23
2023-04-05T21:48:12.943Z,33.00
2023-04-05T21:50:39.591Z,33.57
2023-04-05T21:53:07.225Z,33.43
2023-04-05T21:55:33.931Z,38.03
2023-04-05T21:58:00.737Z,35.23
2023-04-05T22:00:27.824Z,34.00
2023-04-05T22:02:54.443Z,37.30
2023-04-05T22:05:33.806Z,31.67
2023-04-05T22:08:03.525Z,36.47
2023-04-05T22:10:30.216Z,40.97
2023-04-05T22:12:56.800Z,29.07
2023-04-05T22:15:23.389Z,37.17
2023-04-05T22:17:49.988Z,27.67
2023-04-05T22:20:16.770Z,31.53
2023-04-05T22:22:43.328Z,33.37
2023-04-05T22:25:10.052Z,36.23
2023-04-05T22:27:36.614Z,30.20
2023-04-05T22:30:04.665Z,31.67
2023-04-05T22:32:31.395Z,36.67
2023-04-05T22:34:58.049Z,28.60
2023-04-05T22:37:24.845Z,33.57
2023-04-05T22:39:51.419Z,35.70
2023-04-05T22:42:17.983Z,36.10
2023-04-05T22:44:44.558Z,28.87
2023-04-05T22:47:11.113Z,34.37
2023-04-05T22:49:37.933Z,32.67
2023-04-05T22:52:04.503Z,31.33
2023-04-05T22:54:31.202Z,24.93
2023-04-05T22:56:57.772Z,31.60
2023-04-05T22:59:24.579Z,33.23
2023-04-05T23:01:51.313Z,32.20
2023-04-05T23:04:17.961Z,32.63
2023-04-05T23:06:44.565Z,31.37
2023-04-05T23:09:11.343Z,28.40
2023-04-05T23:11:38.154Z,34.60
2023-04-05T23:14:04.767Z,32.07
2023-04-05T23:16:31.354Z,38.70
2023-04-05T23:18:57.996Z,33.40
2023-04-05T23:21:24.703Z,33.97
2023-04-05T23:23:51.488Z,31.87
2023-04-05T23:26:18.037Z,36.77
2023-04-05T23:28:44.615Z,38.17
2023-04-05T23:31:11.220Z,34.50
2023-04-05T23:33:37.840Z,38.87
2023-04-05T23:36:04.790Z,32.30
2023-04-05T23:38:31.476Z,31.80
2023-04-05T23:40:58.013Z,35.53
2023-04-05T23:43:24.591Z,33.53
2023-04-05T23:45:51.126Z,36.73
2023-04-05T23:48:17.675Z,34.67
2023-04-05T23:50:44.236Z,34.87
2023-04-05T23:53:11.092Z,33.93
2023-04-05T23:55:40.335Z,39.80
2023-04-05T23:58:07.945Z,38.80
